createdAt,value
2016-06-17T00:00:48.260Z,62.7
2016-06-17T00:01:48.264Z,63.08
2016-06-17T00:02:48.126Z,63.08
2016-06-17T00:03:48.286Z,62.7
2016-06-17T00:04:48.305Z,62.7
2016-06-17T00:05:48.309Z,62.79
2016-06-17T00:06:48.328Z,62.7
2016-06-17T00:07:48.331Z,62.6
2016-06-17T00:08:48.350Z,62.6
2016-06-17T00:09:48.213Z,62.79
2016-06-17T00:10:48.217Z,62.79
2016-06-17T00:11:48.376Z,62.7
2016-06-17T00:12:48.239Z,62.7
2016-06-17T00:13:48.414Z,62.6
2016-06-17T00:14:48.417Z,62.5
2016-06-17T00:15:48.421Z,62.98
2016-06-17T00:16:48.441Z,62.79
2016-06-17T00:17:48.444Z,62.7
2016-06-17T00:18:48.463Z,62.79
2016-06-17T00:19:48.467Z,62.7
2016-06-17T00:20:48.485Z,62.6
2016-06-17T00:21:48.474Z,62.79
2016-06-17T00:22:48.508Z,62.7
2016-06-17T00:23:48.356Z,62.7
2016-06-17T00:24:48.530Z,62.7
2016-06-17T00:25:48.394Z,62.79
2016-06-17T00:26:48.553Z,62.79
2016-06-17T00:27:48.557Z,62.79
2016-06-17T00:28:48.576Z,62.89
2016-06-17T00:29:48.579Z,62.6
2016-06-17T00:30:48.614Z,62.79
2016-06-17T00:31:48.617Z,62.7
2016-06-17T00:32:48.621Z,62.79
2016-06-17T00:33:48.640Z,62.79
2016-06-17T00:34:48.644Z,62.98
2016-06-17T00:35:48.662Z,62.98
2016-06-17T00:36:48.651Z,62.7
2016-06-17T00:37:48.529Z,62.89
2016-06-17T00:38:48.673Z,63.08
2016-06-17T00:39:48.536Z,62.89
2016-06-17T00:40:48.539Z,62.6
2016-06-17T00:41:48.714Z,62.7
2016-06-17T00:42:48.718Z,62.79
2016-06-17T00:43:48.737Z,62.7
2016-06-17T00:44:48.756Z,63.08
2016-06-17T00:45:48.759Z,62.89
2016-06-17T00:46:48.778Z,62.7
2016-06-17T00:47:48.782Z,62.7
2016-06-17T00:48:48.785Z,62.7
2016-06-17T00:49:48.804Z,62.89
2016-06-17T00:50:48.823Z,62.7
2016-06-17T00:51:48.826Z,62.79
2016-06-17T00:52:48.829Z,62.79
2016-06-17T00:53:48.847Z,62.7
2016-06-17T00:54:48.850Z,62.7
2016-06-17T00:55:48.869Z,62.79
2016-06-17T00:56:48.872Z,62.79
2016-06-17T00:57:49.048Z,62.79
2016-06-17T00:58:48.910Z,62.7
2016-06-17T00:59:48.758Z,62.79
2016-06-17T01:00:48.933Z,62.79
2016-06-17T01:01:48.936Z,62.89
2016-06-17T01:02:48.940Z,62.7
2016-06-17T01:03:48.958Z,62.86
2016-06-17T01:04:48.977Z,62.79
2016-06-17T01:05:48.965Z,62.6
2016-06-17T01:06:48.985Z,62.86
2016-06-17T01:07:49.004Z,62.66
2016-06-17T01:08:49.008Z,62.79
2016-06-17T01:09:49.026Z,62.57
2016-06-17T01:10:48.873Z,62.7
2016-06-17T01:11:49.049Z,62.7
2016-06-17T01:12:49.052Z,62.76
2016-06-17T01:13:49.086Z,62.98
2016-06-17T01:14:48.934Z,62.76
2016-06-17T01:15:48.938Z,62.76
2016-06-17T01:16:49.097Z,62.76
2016-06-17T01:17:48.959Z,62.66
2016-06-17T01:18:49.120Z,62.7
2016-06-17T01:19:49.123Z,62.98
2016-06-17T01:20:49.142Z,62.6
2016-06-17T01:21:49.162Z,62.47
2016-06-17T01:22:49.180Z,62.86
2016-06-17T01:23:49.169Z,62.66
2016-06-17T01:24:49.187Z,62.89
2016-06-17T01:25:49.191Z,62.86
2016-06-17T01:26:49.210Z,62.57
2016-06-17T01:27:49.057Z,62.76
2016-06-17T01:28:49.232Z,62.86
2016-06-17T01:29:49.236Z,62.95
2016-06-17T01:30:49.239Z,62.28
2016-06-17T01:31:49.258Z,62.66
2016-06-17T01:32:49.278Z,62.6
2016-06-17T01:33:49.264Z,62.89
2016-06-17T01:34:49.300Z,62.76
2016-06-17T01:35:49.319Z,62.86
2016-06-17T01:36:49.323Z,62.7
2016-06-17T01:37:49.326Z,62.5
2016-06-17T01:38:49.346Z,62.76
2016-06-17T01:39:49.192Z,62.89
2016-06-17T01:40:49.352Z,62.76
2016-06-17T01:41:49.372Z,62.7
2016-06-17T01:42:49.234Z,62.76
2016-06-17T01:43:49.379Z,62.79
2016-06-17T01:44:49.413Z,62.76
2016-06-17T01:45:49.400Z,62.86
2016-06-17T01:46:49.279Z,62.37
2016-06-17T01:47:49.439Z,62.79
2016-06-17T01:48:49.457Z,62.6
2016-06-17T01:49:49.477Z,62.76
2016-06-17T01:50:49.465Z,62.79
2016-06-17T01:51:49.468Z,62.98
2016-06-17T01:52:49.331Z,62.86
2016-06-17T01:53:49.350Z,62.79
2016-06-17T01:54:49.509Z,62.86
2016-06-17T01:55:49.529Z,62.98
2016-06-17T01:56:49.535Z,62.98
2016-06-17T01:57:49.540Z,62.5
2016-06-17T01:58:49.560Z,62.98
2016-06-17T01:59:49.580Z,62.57
2016-06-17T02:00:49.601Z,62.98
2016-06-17T02:01:49.605Z,62.76
2016-06-17T02:02:49.609Z,62.76
2016-06-17T02:03:49.628Z,62.95
2016-06-17T02:04:49.647Z,62.57
2016-06-17T02:05:49.651Z,62.79
2016-06-17T02:06:49.671Z,62.95
2016-06-17T02:07:49.675Z,62.89
2016-06-17T02:08:49.694Z,62.76
2016-06-17T02:09:49.697Z,62.95
2016-06-17T02:10:49.717Z,62.37
2016-06-17T02:11:49.721Z,62.86
2016-06-17T02:12:49.569Z,62.47
2016-06-17T02:13:49.743Z,62.98
2016-06-17T02:14:49.606Z,62.86
2016-06-17T02:15:49.750Z,62.7
2016-06-17T02:16:49.613Z,62.37
2016-06-17T02:17:49.789Z,62.95
2016-06-17T02:18:49.792Z,62.76
2016-06-17T02:19:49.795Z,62.76
2016-06-17T02:20:49.814Z,62.6
2016-06-17T02:21:49.818Z,62.89
2016-06-17T02:22:49.836Z,62.76
2016-06-17T02:23:49.856Z,62.95
2016-06-17T02:24:49.844Z,62.57
2016-06-17T02:25:49.878Z,62.95
2016-06-17T02:26:49.882Z,62.95
2016-06-17T02:27:49.902Z,62.86
2016-06-17T02:28:49.888Z,62.57
2016-06-17T02:29:49.924Z,62.66
2016-06-17T02:30:49.756Z,62.66
2016-06-17T02:31:49.931Z,62.86
2016-06-17T02:32:49.794Z,62.66
2016-06-17T02:33:49.952Z,62.66
2016-06-17T02:34:49.956Z,62.57
2016-06-17T02:35:49.976Z,62.76
2016-06-17T02:36:49.995Z,62.76
2016-06-17T02:37:49.997Z,62.86
2016-06-17T02:38:50.001Z,62.76
2016-06-17T02:39:50.021Z,62.66
2016-06-17T02:40:50.024Z,62.66
2016-06-17T02:41:50.028Z,62.66
2016-06-17T02:42:50.062Z,62.66
2016-06-17T02:43:49.893Z,62.66
2016-06-17T02:44:50.085Z,62.86
2016-06-17T02:45:49.917Z,62.76
2016-06-17T02:46:50.108Z,62.76
2016-06-17T02:47:50.111Z,62.57
2016-06-17T02:48:49.974Z,62.57
2016-06-17T02:49:50.133Z,62.66
2016-06-17T02:50:50.153Z,62.66
2016-06-17T02:51:50.156Z,62.76
2016-06-17T02:52:50.159Z,62.66
2016-06-17T02:53:50.178Z,62.66
2016-06-17T02:54:50.198Z,62.76
2016-06-17T02:55:50.201Z,62.86
2016-06-17T02:56:50.220Z,62.57
2016-06-17T02:57:50.208Z,62.95
2016-06-17T02:58:50.227Z,62.76
2016-06-17T02:59:50.074Z,62.66
2016-06-17T03:00:50.249Z,62.95
2016-06-17T03:01:50.253Z,63.05
2016-06-17T03:02:50.272Z,62.76
2016-06-17T03:03:50.276Z,62.57
2016-06-17T03:04:50.138Z,63.05
2016-06-17T03:05:50.314Z,62.86
2016-06-17T03:06:50.145Z,62.57
2016-06-17T03:07:50.164Z,62.86
2016-06-17T03:08:50.184Z,62.66
2016-06-17T03:09:50.358Z,63.05
2016-06-17T03:10:50.362Z,62.76
2016-06-17T03:11:50.381Z,62.86
2016-06-17T03:12:50.385Z,63.05
2016-06-17T03:13:50.404Z,62.86
2016-06-17T03:14:50.408Z,62.86
2016-06-17T03:15:50.411Z,62.76
2016-06-17T03:16:50.430Z,62.86
2016-06-17T03:17:50.433Z,62.86
2016-06-17T03:18:50.452Z,62.76
2016-06-17T03:19:50.456Z,62.86
2016-06-17T03:20:50.475Z,62.86
2016-06-17T03:21:50.479Z,62.95
2016-06-17T03:22:50.498Z,62.76
2016-06-17T03:23:50.486Z,62.57
2016-06-17T03:24:50.520Z,62.95
2016-06-17T03:25:50.524Z,62.76
2016-06-17T03:26:50.386Z,62.76
2016-06-17T03:27:50.546Z,63.05
2016-06-17T03:28:50.565Z,62.76
2016-06-17T03:29:50.569Z,62.76
2016-06-17T03:30:50.431Z,62.95
2016-06-17T03:31:50.591Z,62.86
2016-06-17T03:32:50.610Z,62.86
2016-06-17T03:33:50.613Z,62.76
2016-06-17T03:34:50.632Z,62.76
2016-06-17T03:35:50.621Z,62.76
2016-06-17T03:36:50.639Z,62.86
2016-06-17T03:37:50.643Z,62.66
2016-06-17T03:38:50.678Z,62.76
2016-06-17T03:39:50.667Z,62.76
2016-06-17T03:40:50.684Z,62.76
2016-06-17T03:41:50.688Z,62.86
2016-06-17T03:42:50.707Z,62.86
2016-06-17T03:43:50.726Z,62.86
2016-06-17T03:44:50.762Z,62.86
2016-06-17T03:45:50.749Z,63.05
2016-06-17T03:46:50.769Z,62.76
2016-06-17T03:47:50.772Z,62.86
2016-06-17T03:48:50.776Z,62.76
2016-06-17T03:49:50.793Z,62.86
2016-06-17T03:50:50.641Z,62.86
2016-06-17T03:51:50.817Z,62.76
2016-06-17T03:52:50.820Z,63.05
2016-06-17T03:53:50.668Z,62.95
2016-06-17T03:54:50.843Z,62.76
2016-06-17T03:55:50.846Z,62.86
2016-06-17T03:56:50.865Z,62.76
2016-06-17T03:57:50.885Z,62.76
2016-06-17T03:58:50.888Z,62.86
2016-06-17T03:59:50.735Z,62.86
2016-06-17T04:00:50.910Z,62.86
2016-06-17T04:01:50.913Z,63.05
2016-06-17T04:02:50.917Z,62.86
2016-06-17T04:03:50.936Z,62.76
2016-06-17T04:04:50.955Z,62.86
2016-06-17T04:05:50.802Z,62.76
2016-06-17T04:06:50.963Z,62.86
2016-06-17T04:07:50.981Z,63.05
2016-06-17T04:08:51.047Z,62.95
2016-06-17T04:09:51.004Z,62.95
2016-06-17T04:10:51.023Z,62.86
2016-06-17T04:11:51.042Z,62.86
2016-06-17T04:12:51.048Z,62.86
2016-06-17T04:13:51.071Z,62.76
2016-06-17T04:14:50.922Z,62.76
2016-06-17T04:15:51.085Z,62.86
2016-06-17T04:16:51.091Z,63.05
2016-06-17T04:17:51.112Z,62.47
2016-06-17T04:18:51.116Z,62.86
2016-06-17T04:19:51.137Z,63.05
2016-06-17T04:20:51.141Z,63.05
2016-06-17T04:21:51.162Z,62.86
2016-06-17T04:22:51.151Z,62.76
2016-06-17T04:23:51.185Z,62.76
2016-06-17T04:24:51.033Z,62.86
2016-06-17T04:25:51.209Z,62.76
2016-06-17T04:26:51.212Z,62.86
2016-06-17T04:27:51.232Z,62.57
2016-06-17T04:28:51.236Z,62.76
2016-06-17T04:29:51.083Z,62.95
2016-06-17T04:30:51.259Z,62.76
2016-06-17T04:31:51.122Z,62.66
2016-06-17T04:32:51.283Z,62.86
2016-06-17T04:33:51.300Z,62.66
2016-06-17T04:34:51.320Z,62.86
2016-06-17T04:35:51.324Z,62.66
2016-06-17T04:36:51.312Z,62.86
2016-06-17T04:37:51.346Z,62.76
2016-06-17T04:38:51.334Z,62.76
2016-06-17T04:39:51.353Z,62.57
2016-06-17T04:40:51.216Z,62.76
2016-06-17T04:41:51.376Z,62.47
2016-06-17T04:42:51.378Z,62.86
2016-06-17T04:43:51.398Z,62.76
2016-06-17T04:44:51.417Z,62.86
2016-06-17T04:45:51.422Z,62.95
2016-06-17T04:46:51.440Z,62.76
2016-06-17T04:47:51.460Z,63.05
2016-06-17T04:48:51.462Z,63.05
2016-06-17T04:49:51.466Z,62.86
2016-06-17T04:50:51.469Z,62.66
2016-06-17T04:51:51.488Z,62.86
2016-06-17T04:52:51.524Z,62.95
2016-06-17T04:53:51.511Z,62.86
2016-06-17T04:54:51.373Z,62.76
2016-06-17T04:55:51.534Z,62.76
2016-06-17T04:56:51.553Z,62.86
2016-06-17T04:57:51.556Z,62.76
2016-06-17T04:58:51.576Z,62.86
2016-06-17T04:59:51.437Z,63.05
2016-06-17T05:00:51.426Z,63.05
2016-06-17T05:01:51.445Z,62.86
2016-06-17T05:02:51.464Z,62.76
2016-06-17T05:03:51.468Z,62.86
2016-06-17T05:04:51.643Z,62.95
2016-06-17T05:05:51.646Z,62.95
2016-06-17T05:06:51.650Z,62.76
2016-06-17T05:07:51.669Z,62.86
2016-06-17T05:08:51.688Z,62.86
2016-06-17T05:09:51.676Z,62.86
2016-06-17T05:10:51.710Z,62.95
2016-06-17T05:11:51.698Z,62.86
2016-06-17T05:12:51.718Z,62.95
2016-06-17T05:13:51.721Z,62.76
2016-06-17T05:14:51.740Z,62.76
2016-06-17T05:15:51.743Z,62.76
2016-06-17T05:16:51.762Z,63.05
2016-06-17T05:17:51.766Z,62.86
2016-06-17T05:18:51.785Z,62.86
2016-06-17T05:19:51.804Z,62.76
2016-06-17T05:20:51.808Z,62.86
2016-06-17T05:21:51.670Z,62.86
2016-06-17T05:22:51.830Z,62.76
2016-06-17T05:23:51.848Z,62.86
2016-06-17T05:24:51.852Z,62.76
2016-06-17T05:25:51.856Z,63.05
2016-06-17T05:26:51.719Z,62.76
2016-06-17T05:27:51.863Z,63.05
2016-06-17T05:28:51.898Z,62.76
2016-06-17T05:29:51.902Z,62.57
2016-06-17T05:30:51.920Z,62.86
2016-06-17T05:31:51.924Z,62.57
2016-06-17T05:32:51.943Z,62.86
2016-06-17T05:33:51.946Z,63.05
2016-06-17T05:34:51.950Z,62.66
2016-06-17T05:35:51.984Z,62.76
2016-06-17T05:36:51.973Z,62.66
2016-06-17T05:37:51.991Z,63.05
2016-06-17T05:38:51.995Z,62.95
2016-06-17T05:39:51.858Z,62.86
2016-06-17T05:40:52.017Z,62.95
2016-06-17T05:41:52.036Z,63.05
2016-06-17T05:42:52.055Z,62.86
2016-06-17T05:43:52.059Z,62.86
2016-06-17T05:44:52.078Z,62.86
2016-06-17T05:45:52.082Z,62.76
2016-06-17T05:46:52.100Z,62.86
2016-06-17T05:47:52.120Z,62.76
2016-06-17T05:48:52.107Z,62.76
2016-06-17T05:49:52.143Z,62.66
2016-06-17T05:50:52.130Z,62.66
2016-06-17T05:51:52.133Z,62.66
2016-06-17T05:52:52.153Z,62.76
2016-06-17T05:53:52.015Z,62.86
2016-06-17T05:54:52.175Z,62.76
2016-06-17T05:55:52.194Z,62.76
2016-06-17T05:56:52.198Z,62.66
2016-06-17T05:57:52.201Z,62.86
2016-06-17T05:58:52.063Z,62.95
2016-06-17T05:59:52.084Z,62.86
2016-06-17T06:00:52.242Z,62.86
2016-06-17T06:01:52.277Z,62.76
2016-06-17T06:02:52.266Z,63.05
2016-06-17T06:03:52.269Z,62.86
2016-06-17T06:04:52.287Z,62.86
2016-06-17T06:05:52.290Z,63.05
2016-06-17T06:06:52.310Z,62.86
2016-06-17T06:07:52.330Z,62.86
2016-06-17T06:08:52.334Z,62.76
2016-06-17T06:09:52.195Z,63.05
2016-06-17T06:10:52.355Z,62.86
2016-06-17T06:11:52.202Z,62.76
2016-06-17T06:12:52.378Z,62.57
2016-06-17T06:13:52.382Z,62.95
2016-06-17T06:14:52.400Z,62.66
2016-06-17T06:15:52.403Z,63.05
2016-06-17T06:16:52.407Z,62.86
2016-06-17T06:17:52.426Z,62.86
2016-06-17T06:18:52.430Z,62.86
2016-06-17T06:19:52.450Z,62.76
2016-06-17T06:20:52.467Z,62.76
2016-06-17T06:21:52.457Z,62.86
2016-06-17T06:22:52.490Z,62.76
2016-06-17T06:23:52.510Z,62.86
2016-06-17T06:24:52.514Z,62.86
2016-06-17T06:25:52.517Z,62.95
2016-06-17T06:26:52.380Z,62.66
2016-06-17T06:27:52.524Z,62.86
2016-06-17T06:28:52.543Z,62.86
2016-06-17T06:29:52.567Z,62.76
2016-06-17T06:30:52.607Z,63.05
2016-06-17T06:31:52.615Z,62.86
2016-06-17T06:32:52.624Z,62.86
2016-06-17T06:33:52.632Z,62.76
2016-06-17T06:34:52.637Z,62.86
2016-06-17T06:35:52.658Z,62.86
2016-06-17T06:36:52.522Z,62.76
2016-06-17T06:37:52.682Z,62.76
2016-06-17T06:38:52.688Z,62.86
2016-06-17T06:39:52.536Z,62.86
2016-06-17T06:40:52.557Z,62.86
2016-06-17T06:41:52.700Z,62.86
2016-06-17T06:42:52.737Z,62.86
2016-06-17T06:43:52.741Z,62.86
2016-06-17T06:44:52.759Z,62.86
2016-06-17T06:45:52.763Z,62.57
2016-06-17T06:46:52.782Z,63.05
2016-06-17T06:47:52.630Z,62.76
2016-06-17T06:48:52.804Z,62.57
2016-06-17T06:49:52.651Z,62.86
2016-06-17T06:50:52.827Z,62.57
2016-06-17T06:51:52.674Z,62.86
2016-06-17T06:52:52.850Z,62.57
2016-06-17T06:53:52.854Z,62.66
2016-06-17T06:54:52.872Z,62.76
2016-06-17T06:55:52.876Z,62.66
2016-06-17T06:56:52.910Z,62.28
2016-06-17T06:57:52.898Z,62.76
2016-06-17T06:58:52.933Z,62.66
2016-06-17T06:59:52.921Z,62.86
2016-06-17T07:00:52.940Z,62.76
2016-06-17T07:01:52.943Z,63.05
2016-06-17T07:02:52.806Z,62.86
2016-06-17T07:03:52.965Z,63.15
2016-06-17T07:04:52.828Z,62.47
2016-06-17T07:05:52.988Z,62.66
2016-06-17T07:06:53.008Z,62.47
2016-06-17T07:07:53.026Z,62.47
2016-06-17T07:08:53.030Z,62.28
2016-06-17T07:09:53.033Z,62.76
2016-06-17T07:10:53.037Z,62.76
2016-06-17T07:11:53.041Z,62.76
2016-06-17T07:12:53.075Z,62.86
2016-06-17T07:13:53.095Z,62.66
2016-06-17T07:14:53.082Z,62.76
2016-06-17T07:15:53.085Z,62.66
2016-06-17T07:16:53.105Z,62.57
2016-06-17T07:17:52.952Z,62.86
2016-06-17T07:18:53.126Z,62.28
2016-06-17T07:19:53.131Z,62.28
2016-06-17T07:20:53.164Z,62.47
2016-06-17T07:21:53.153Z,62.28
2016-06-17T07:22:53.157Z,62.47
2016-06-17T07:23:53.176Z,62.37
2016-06-17T07:24:53.195Z,62.08
2016-06-17T07:25:53.229Z,62.08
2016-06-17T07:26:53.232Z,62.31
2016-06-17T07:27:53.221Z,62.21
2016-06-17T07:28:53.240Z,62.08
2016-06-17T07:29:53.289Z,61.8
2016-06-17T07:30:53.107Z,62.02
2016-06-17T07:31:53.296Z,61.89
2016-06-17T07:32:53.300Z,60.96
2016-06-17T07:33:53.304Z,60.06
2016-06-17T07:34:53.339Z,58.8
2016-06-17T07:35:53.327Z,58.42
2016-06-17T07:36:53.345Z,58.51
2016-06-17T07:37:53.161Z,58.03
2016-06-17T07:38:53.337Z,57.64
2016-06-17T07:39:53.355Z,57.16
2016-06-17T07:40:53.375Z,57.35
2016-06-17T07:41:53.379Z,56.96
2016-06-17T07:42:53.397Z,56.77
2016-06-17T07:43:53.401Z,56.87
2016-06-17T07:44:53.405Z,56.68
2016-06-17T07:45:53.408Z,56.96
2016-06-17T07:46:53.412Z,56.77
2016-06-17T07:47:53.430Z,56.48
2016-06-17T07:48:53.434Z,56.77
2016-06-17T07:49:53.453Z,56.68
2016-06-17T07:50:53.503Z,56.68
2016-06-17T07:51:53.491Z,56.68
2016-06-17T07:52:53.480Z,56.1
2016-06-17T07:53:53.498Z,56.65
2016-06-17T07:54:53.517Z,56.68
2016-06-17T07:55:53.521Z,56.68
2016-06-17T07:56:53.524Z,56.58
2016-06-17T07:57:53.543Z,56.77
2016-06-17T07:58:53.593Z,56.68
2016-06-17T07:59:53.550Z,56.48
2016-06-17T08:05:02.490Z,56.29
2016-06-17T08:06:02.494Z,56.2
2016-06-17T08:07:02.513Z,56.48
2016-06-17T08:08:02.531Z,56.26
2016-06-17T08:09:02.535Z,56.46
2016-06-17T08:10:02.554Z,56.56
2016-06-17T08:11:02.558Z,56.46
2016-06-17T08:12:02.577Z,56.46
2016-06-17T08:13:02.579Z,56.26
2016-06-17T08:14:02.583Z,56.36
2016-06-17T08:15:02.586Z,56.16
2016-06-17T08:16:02.590Z,56.56
2016-06-17T08:17:02.609Z,56.56
2016-06-17T08:18:02.629Z,56.65
2016-06-17T08:19:02.633Z,56.87
2016-06-17T08:20:02.651Z,56.56
2016-06-17T08:21:02.654Z,56.48
2016-06-17T08:22:02.658Z,56.56
2016-06-17T08:23:02.692Z,56.48
2016-06-17T08:24:02.681Z,56.48
2016-06-17T08:25:02.684Z,56.77
2016-06-17T08:26:02.703Z,56.58
2016-06-17T08:27:02.706Z,56.68
2016-06-17T08:28:02.726Z,56.48
2016-06-17T08:29:02.729Z,56.68
2016-06-17T08:30:03.358Z,56.48
2016-06-17T08:31:03.361Z,56.48
2016-06-17T08:32:02.740Z,56.58
2016-06-17T08:33:02.775Z,56.77
2016-06-17T08:34:02.794Z,56.77
2016-06-17T08:35:02.798Z,56.58
2016-06-17T08:36:02.800Z,56.58
2016-06-17T08:37:02.820Z,56.48
2016-06-17T08:38:02.855Z,56.48
2016-06-17T08:39:02.842Z,56.22
2016-06-17T08:40:02.846Z,56.48
2016-06-17T08:41:02.865Z,56.48
2016-06-17T08:42:02.868Z,56.61
2016-06-17T08:43:02.872Z,56.68
2016-06-17T08:44:02.890Z,56.8
2016-06-17T08:44:25.578Z,56.8
2016-06-17T08:45:25.332Z,56.61
2016-06-17T08:46:25.397Z,56.61
2016-06-17T08:47:25.356Z,56.41
2016-06-17T08:48:25.671Z,56.51
2016-06-17T08:49:25.363Z,56.51
2016-06-17T08:50:25.381Z,56.51
2016-06-17T08:51:25.385Z,56.41
2016-06-17T08:52:25.420Z,56.71
2016-06-17T08:53:25.878Z,56.41
2016-06-17T08:54:25.426Z,56.61
2016-06-17T08:55:25.727Z,56.61
2016-06-17T08:56:25.466Z,56.51
2016-06-17T08:57:25.453Z,56.41
2016-06-17T08:58:25.489Z,56.61
2016-06-17T08:59:25.491Z,56.35
2016-06-17T09:00:25.495Z,56.32
2016-06-17T09:01:25.608Z,56.63
2016-06-17T09:02:25.518Z,56.35
2016-06-17T09:03:26.147Z,56.45
2016-06-17T09:04:25.541Z,56.35
2016-06-17T09:05:25.763Z,56.35
2016-06-17T09:06:25.860Z,56.61
2016-06-17T09:07:25.582Z,56.25
2016-06-17T09:08:25.867Z,56.05
2016-06-17T09:16:25.642Z,55.87
2016-06-17T09:17:25.911Z,55.87
2016-06-17T09:24:22.800Z,55.38
2016-06-17T09:25:23.022Z,55.38
2016-06-17T09:26:23.026Z,55.77
2016-06-17T09:27:22.843Z,55.77
2016-06-17T09:28:22.846Z,55.77
2016-06-17T09:29:22.912Z,55.65
2016-06-17T09:30:22.868Z,55.19
2016-06-17T09:31:22.934Z,55.67
2016-06-17T09:32:22.891Z,55.57
2016-06-17T09:33:23.067Z,55.38
2016-06-17T09:34:23.523Z,55.47
2016-06-17T09:35:22.949Z,55.47
2016-06-17T09:36:23.046Z,55.77
2016-06-17T09:37:22.955Z,55.77
2016-06-17T09:38:22.959Z,55.47
2016-06-17T09:39:22.963Z,55.29
2016-06-17T09:40:22.981Z,55.57
2016-06-17T09:41:23.002Z,55.57
2016-06-17T09:42:23.006Z,55.38
2016-06-17T09:43:23.011Z,55.29
2016-06-17T09:44:23.188Z,55.29
2016-06-17T09:45:23.037Z,55.38
2016-06-17T09:46:23.666Z,55.38
2016-06-17T09:47:23.076Z,55.47
2016-06-17T09:48:23.141Z,55.57
2016-06-17T09:49:23.100Z,55.87
2016-06-17T09:50:23.134Z,55.87
2016-06-17T09:51:23.732Z,55.67
2016-06-17T09:52:23.125Z,55.77
2016-06-17T09:53:23.770Z,55.77
2016-06-17T09:54:23.148Z,56.05
2016-06-17T09:55:23.167Z,55.96
2016-06-17T09:56:23.170Z,55.87
2016-06-17T09:57:23.783Z,55.77
2016-06-17T09:58:23.196Z,56.05
2016-06-17T09:59:23.218Z,55.77
2016-06-17T10:00:23.223Z,55.7
2016-06-17T10:01:23.245Z,55.96
2016-06-17T10:02:23.250Z,55.6
2016-06-17T10:03:23.271Z,55.89
2016-06-17T10:04:23.276Z,55.6
2016-06-17T10:05:23.280Z,55.79
2016-06-17T10:06:23.300Z,55.51
2016-06-17T10:07:23.304Z,55.51
2016-06-17T10:08:23.307Z,55.41
2016-06-17T10:09:23.327Z,55.51
2016-06-17T10:10:23.347Z,55.51
2016-06-17T10:11:23.351Z,55.51
2016-06-17T10:12:23.354Z,55.6
2016-06-17T10:13:23.389Z,55.51
2016-06-17T10:14:23.392Z,55.11
2016-06-17T10:15:23.413Z,55.51
2016-06-17T10:16:23.417Z,55.31
2016-06-17T10:17:23.421Z,55.31
2016-06-17T10:18:23.440Z,55.21
2016-06-17T10:19:23.444Z,55.34
2016-06-17T10:20:23.464Z,55.31
2016-06-17T10:21:23.468Z,55.41
2016-06-17T10:22:23.488Z,55.6
2016-06-17T10:23:23.492Z,55.41
2016-06-17T10:24:23.511Z,55.51
2016-06-17T10:25:23.514Z,55.24
2016-06-17T10:26:23.533Z,55.15
2016-06-17T10:27:23.537Z,55.34
2016-06-17T10:28:23.556Z,55.43
2016-06-17T10:29:23.591Z,55.43
2016-06-17T10:30:23.578Z,55.53
2016-06-17T10:31:23.598Z,55.43
2016-06-17T10:32:24.210Z,55.43
2016-06-17T10:33:24.229Z,55.34
2016-06-17T10:34:23.623Z,55.34
2016-06-17T10:35:23.627Z,55.24
2016-06-17T10:36:24.255Z,55.15
2016-06-17T10:37:23.650Z,55.53
2016-06-17T10:38:23.669Z,55.51
2016-06-17T10:39:23.673Z,55.43
2016-06-17T10:40:23.676Z,55.51
2016-06-17T10:41:23.694Z,55.53
2016-06-17T10:42:23.698Z,55.53
2016-06-17T10:43:23.718Z,55.43
2016-06-17T10:44:23.736Z,55.43
2016-06-17T10:45:23.755Z,55.34
2016-06-17T10:46:23.759Z,55.53
2016-06-17T10:47:23.778Z,55.15
2016-06-17T10:48:23.796Z,55.53
2016-06-17T10:49:24.426Z,55.15
2016-06-17T10:50:23.805Z,55.15
2016-06-17T10:51:23.809Z,55.05
2016-06-17T10:52:23.829Z,55.15
2016-06-17T10:53:23.849Z,54.95
2016-06-17T10:54:23.854Z,55.15
2016-06-17T10:55:23.872Z,55.05
2016-06-17T10:56:23.891Z,55.05
2016-06-17T10:57:23.894Z,55.05
2016-06-17T10:58:23.897Z,54.85
2016-06-17T10:59:23.963Z,55.05
2016-06-17T11:00:23.920Z,54.95
2016-06-17T11:01:23.923Z,54.85
2016-06-17T11:02:23.943Z,55.05
2016-06-17T11:03:23.946Z,55.05
2016-06-17T11:04:23.965Z,54.57
2016-06-17T11:05:23.970Z,54.57
2016-06-17T11:06:23.987Z,54.47
2016-06-17T11:07:24.004Z,54.47
2016-06-17T11:08:24.038Z,54.95
2016-06-17T11:09:24.025Z,54.95
2016-06-17T11:10:24.043Z,55.05
2016-06-17T11:11:24.046Z,55.05
2016-06-17T11:12:24.049Z,54.98
2016-06-17T11:13:24.099Z,54.98
2016-06-17T11:14:24.086Z,54.98
2016-06-17T11:15:24.089Z,55.07
2016-06-17T11:16:24.702Z,55.15
2016-06-17T11:17:24.112Z,55.15
2016-06-17T11:18:24.115Z,55.34
2016-06-17T11:19:24.182Z,55.15
2016-06-17T11:20:24.170Z,55.15
2016-06-17T11:21:24.172Z,54.98
2016-06-17T11:22:24.160Z,55.07
2016-06-17T11:23:24.180Z,55.17
2016-06-17T11:24:24.527Z,55.17
2016-06-17T11:25:24.203Z,54.98
2016-06-17T11:26:24.206Z,55.24
2016-06-17T11:27:24.505Z,55.15
2016-06-17T11:28:24.838Z,54.85
2016-06-17T11:29:24.247Z,54.98
2016-06-17T11:30:24.282Z,55.17
2016-06-17T11:31:24.879Z,55.17
2016-06-17T11:32:24.897Z,54.98
2016-06-17T11:33:24.293Z,54.98
2016-06-17T11:34:24.296Z,54.98
2016-06-17T11:35:24.315Z,54.98
2016-06-17T11:36:24.334Z,55.07
2016-06-17T11:37:24.978Z,55.07
2016-06-17T11:38:24.337Z,54.98
2016-06-17T11:39:24.689Z,54.79
2016-06-17T11:40:24.361Z,54.59
2016-06-17T11:41:24.586Z,54.71
2016-06-17T11:42:24.383Z,55
2016-06-17T11:43:24.763Z,55.07
2016-06-17T11:44:24.513Z,54.71
2016-06-17T11:45:24.438Z,54.59
2016-06-17T11:46:24.426Z,54.79
2016-06-17T11:47:25.275Z,55.07
2016-06-17T11:48:24.462Z,54.69
2016-06-17T11:49:24.466Z,55.07
2016-06-17T11:50:25.441Z,55.1
2016-06-17T11:51:24.488Z,55.17
2016-06-17T11:52:24.695Z,54.98
2016-06-17T11:53:24.510Z,54.98
2016-06-17T11:54:24.513Z,54.98
2016-06-17T11:55:24.892Z,55.17
2016-06-17T11:56:24.709Z,54.69
2016-06-17T11:57:24.571Z,53.94
2016-06-17T11:58:24.575Z,54.01
2016-06-17T11:59:24.844Z,53.63
2016-06-17T12:00:24.597Z,52.85
2016-06-17T12:01:24.820Z,52.66
2016-06-17T12:02:24.619Z,53.07
2016-06-17T12:03:24.889Z,52.78
2016-06-17T12:04:25.299Z,52.97
2016-06-17T12:05:24.646Z,53.04
2016-06-17T12:06:24.962Z,53.33
2016-06-17T12:07:24.684Z,53.23
2016-06-17T12:08:24.703Z,52.75
2016-06-17T12:09:24.910Z,52.49
2016-06-17T12:10:24.726Z,51.98
2016-06-17T12:11:24.745Z,52.29
2016-06-17T12:12:24.842Z,52.36
2016-06-17T12:13:24.751Z,52.27
2016-06-17T12:14:24.755Z,51.78
2016-06-17T12:15:24.775Z,51.72
2016-06-17T12:16:24.969Z,51.72
2016-06-17T12:17:24.803Z,51.62
2016-06-17T12:18:25.013Z,51.9
2016-06-17T12:19:24.832Z,51.88
2016-06-17T12:20:25.086Z,52.49
2016-06-17T12:21:24.858Z,52
2016-06-17T12:22:24.862Z,51.72
2016-06-17T12:23:24.929Z,51.81
2016-06-17T12:24:24.933Z,51.52
2016-06-17T12:25:24.922Z,51.32
2016-06-17T12:26:24.926Z,51.72
2016-06-17T12:27:24.930Z,51.62
2016-06-17T12:28:24.949Z,51.62
2016-06-17T12:29:24.953Z,51.42
2016-06-17T12:30:25.160Z,51.81
2016-06-17T12:31:24.976Z,51.72
2016-06-17T12:32:24.995Z,51.81
2016-06-17T12:33:25.310Z,51.81
2016-06-17T12:34:25.017Z,52.2
2016-06-17T12:35:25.334Z,52.2
2016-06-17T12:36:25.133Z,52.2
2016-06-17T12:37:25.044Z,52.29
2016-06-17T12:38:25.219Z,52.29
2016-06-17T12:39:25.065Z,52.58
2016-06-17T12:40:25.085Z,52.29
2016-06-17T12:41:25.089Z,52.39
2016-06-17T12:42:25.108Z,52.29
2016-06-17T12:43:25.361Z,52.1
2016-06-17T12:44:25.130Z,52.1
2016-06-17T12:45:25.149Z,52.39
2016-06-17T12:46:25.153Z,52
2016-06-17T12:47:25.171Z,52.51
2016-06-17T12:48:25.190Z,52.1
2016-06-17T12:49:25.194Z,52.12
2016-06-17T12:50:25.198Z,52.2
2016-06-17T12:51:25.560Z,52.39
2016-06-17T12:52:25.221Z,52.39
2016-06-17T12:53:25.333Z,52.12
2016-06-17T12:54:25.243Z,52.22
2016-06-17T12:55:25.387Z,52.42
2016-06-17T12:56:25.265Z,52.51
2016-06-17T12:57:25.535Z,52.68
2016-06-17T12:58:25.319Z,52.87
2016-06-17T12:59:25.354Z,53.36
2016-06-17T13:00:25.482Z,52.78
2016-06-17T13:01:25.329Z,52.87
2016-06-17T13:02:25.442Z,52.87
2016-06-17T13:03:25.352Z,53.07
2016-06-17T13:04:25.355Z,52.87
2016-06-17T13:05:26.078Z,52.87
2016-06-17T13:06:25.394Z,53.17
2016-06-17T13:07:25.412Z,53.36
2016-06-17T13:08:25.415Z,53
2016-06-17T13:09:25.419Z,52.8
2016-06-17T13:10:25.595Z,52.78
2016-06-17T13:11:25.458Z,52.71
2016-06-17T13:12:40.371Z,52.61